Time;durP1;ratioP1;P1;durP2;ratioP2;P2;SDS_P1;SDS_P2;PMS_P1;PMS_P2;Temp;Humidity;BMP_temperature;BMP_pressure;BME280_temperature;BME280_humidity;BME280_pressure;Samples;Min_cycle;Max_cycle;Signal;HPM_P1;HPM_P2
2021/08/14 00:01:36;;;;;;;7.55;3.80;;;19.90;63.80;;;;;;5069848;28;20024;-83
2021/08/14 00:04:02;;;;;;;8.77;4.93;;;19.90;63.90;;;;;;5068773;28;20082;-82
2021/08/14 00:06:28;;;;;;;10.32;4.30;;;19.90;63.90;;;;;;5087080;28;20031;-83
2021/08/14 00:08:54;;;;;;;8.35;4.07;;;19.90;64.00;;;;;;5060627;28;20531;-83
2021/08/14 00:11:20;;;;;;;10.63;4.70;;;19.90;64.00;;;;;;5048722;28;20064;-82
2021/08/14 00:13:46;;;;;;;7.50;4.30;;;19.80;63.80;;;;;;5068050;28;20059;-82
2021/08/14 00:16:12;;;;;;;8.27;3.47;;;19.80;63.90;;;;;;5074735;28;20271;-83
2021/08/14 00:18:38;;;;;;;7.75;4.75;;;19.80;63.90;;;;;;5085802;28;20029;-82
2021/08/14 00:21:04;;;;;;;8.32;4.70;;;19.80;64.00;;;;;;5053508;28;20029;-82
2021/08/14 00:23:30;;;;;;;5.05;3.88;;;19.80;64.00;;;;;;5078583;28;20035;-81
2021/08/14 00:25:57;;;;;;;10.30;5.28;;;19.80;64.10;;;;;;5072990;28;20024;-82
2021/08/14 00:28:26;;;;;;;7.32;4.25;;;19.80;64.10;;;;;;5090911;28;20487;-84
2021/08/14 00:30:52;;;;;;;6.20;4.32;;;19.80;64.10;;;;;;5091425;28;20032;-83
2021/08/14 00:33:18;;;;;;;8.40;4.05;;;19.70;64.00;;;;;;5072637;28;20032;-83
2021/08/14 00:35:44;;;;;;;10.43;4.18;;;19.70;64.00;;;;;;5073060;28;20035;-84
2021/08/14 00:38:10;;;;;;;8.30;4.03;;;19.70;64.00;;;;;;5088973;28;20032;-84
2021/08/14 00:40:38;;;;;;;9.32;5.00;;;19.70;64.10;;;;;;5052595;28;20044;-83
2021/08/14 00:43:05;;;;;;;9.68;4.70;;;19.70;64.10;;;;;;5056837;28;20489;-84
2021/08/14 00:45:31;;;;;;;8.45;4.85;;;19.70;64.20;;;;;;5090399;28;20024;-83
2021/08/14 00:47:57;;;;;;;6.50;4.22;;;19.70;64.20;;;;;;5072285;28;20378;-83
2021/08/14 00:50:26;;;;;;;8.10;4.13;;;19.70;64.20;;;;;;5053248;28;20024;-83
2021/08/14 00:52:51;;;;;;;8.15;3.92;;;19.70;64.30;;;;;;5055585;28;20028;-82
2021/08/14 00:55:18;;;;;;;7.35;4.30;;;19.60;64.20;;;;;;5091000;28;20032;-83
2021/08/14 00:57:44;;;;;;;6.80;4.45;;;19.60;64.20;;;;;;5056740;28;20024;-83
2021/08/14 01:00:11;;;;;;;6.88;4.20;;;19.60;64.20;;;;;;5072958;28;20054;-83
2021/08/14 01:02:37;;;;;;;6.53;4.15;;;19.60;64.30;;;;;;5073528;28;20485;-83
2021/08/14 01:05:06;;;;;;;7.80;4.82;;;19.60;64.40;;;;;;5071162;28;20064;-83
2021/08/14 01:07:32;;;;;;;6.80;4.18;;;19.60;64.40;;;;;;5052959;28;20036;-83
2021/08/14 01:09:58;;;;;;;5.45;4.43;;;19.50;64.30;;;;;;5069740;28;20040;-84
2021/08/14 01:12:24;;;;;;;10.10;3.80;;;19.50;64.40;;;;;;5091721;28;20040;-84
2021/08/14 01:14:50;;;;;;;7.65;4.43;;;19.50;64.40;;;;;;5090451;28;20051;-83
2021/08/14 01:17:16;;;;;;;9.32;4.68;;;19.50;64.50;;;;;;5073537;28;20035;-86
2021/08/14 01:19:44;;;;;;;5.88;4.40;;;19.50;64.50;;;;;;5056029;28;20093;-84
2021/08/14 01:22:14;;;;;;;6.93;4.47;;;19.50;64.60;;;;;;5073160;28;20028;-84
2021/08/14 01:24:42;;;;;;;8.70;4.43;;;19.50;64.60;;;;;;5052947;28;20395;-84
2021/08/14 01:27:09;;;;;;;6.53;4.18;;;19.40;65.00;;;;;;5071144;28;20035;-84
2021/08/14 01:29:38;;;;;;;8.10;4.78;;;19.40;64.50;;;;;;5084894;28;20024;-84
2021/08/14 01:32:06;;;;;;;9.82;4.43;;;19.50;64.80;;;;;;5079833;28;20032;-87
2021/08/14 01:34:32;;;;;;;6.90;3.78;;;19.40;64.60;;;;;;5092536;28;20020;-81
2021/08/14 01:37:00;;;;;;;8.25;4.20;;;19.40;64.70;;;;;;5125233;28;20081;-85
2021/08/14 01:39:26;;;;;;;10.48;5.30;;;19.40;64.70;;;;;;5135963;27;20047;-83
2021/08/14 01:42:00;;;;;;;7.85;4.18;;;19.40;64.80;;;;;;5119423;27;20034;-82
2021/08/14 01:44:28;;;;;;;6.72;4.30;;;19.40;64.90;;;;;;5136813;27;20020;-81
2021/08/14 01:46:54;;;;;;;5.60;3.95;;;19.30;64.70;;;;;;5119016;27;20055;-80
2021/08/14 01:49:20;;;;;;;10.25;4.00;;;19.30;64.80;;;;;;5081150;28;20118;-83
2021/08/14 01:51:47;;;;;;;7.07;3.65;;;19.30;64.80;;;;;;5085812;28;20027;-81
2021/08/14 01:54:14;;;;;;;6.25;3.78;;;19.30;64.90;;;;;;5097330;28;20375;-81
2021/08/14 01:56:40;;;;;;;10.27;5.03;;;19.30;64.90;;;;;;5115257;28;20522;-81
2021/08/14 01:59:09;;;;;;;6.88;4.05;;;19.30;65.00;;;;;;5091540;28;20464;-81
2021/08/14 02:01:36;;;;;;;6.45;3.97;;;19.30;65.00;;;;;;5076209;28;20277;-82
2021/08/14 02:04:02;;;;;;;6.15;3.38;;;19.20;64.90;;;;;;5059674;28;20028;-82
2021/08/14 02:06:29;;;;;;;8.40;4.47;;;19.20;64.90;;;;;;5093769;28;20028;-83
2021/08/14 02:08:56;;;;;;;5.18;3.92;;;19.20;65.00;;;;;;5093968;28;20074;-83
2021/08/14 02:11:27;;;;;;;8.27;4.32;;;19.20;65.00;;;;;;5094119;28;20036;-82
2021/08/14 02:13:55;;;;;;;5.70;4.00;;;19.30;65.30;;;;;;5075829;28;20047;-82
2021/08/14 02:16:22;;;;;;;8.82;4.68;;;19.20;65.10;;;;;;5093406;28;20052;-82
2021/08/14 02:18:48;;;;;;;7.70;4.38;;;19.20;65.10;;;;;;5093571;28;20510;-82
2021/08/14 02:21:14;;;;;;;6.90;3.55;;;19.20;65.20;;;;;;5093645;28;20364;-83
2021/08/14 02:23:41;;;;;;;7.22;4.65;;;19.20;65.20;;;;;;5093603;28;20347;-82
2021/08/14 02:26:08;;;;;;;7.00;3.95;;;19.20;65.30;;;;;;5093325;28;20035;-82
2021/08/14 02:28:34;;;;;;;5.90;4.30;;;19.20;65.30;;;;;;5093108;28;20039;-84
2021/08/14 02:31:01;;;;;;;8.13;4.38;;;19.10;65.20;;;;;;5075725;28;20024;-84
2021/08/14 02:33:28;;;;;;;6.38;4.22;;;19.20;65.40;;;;;;5075390;28;20085;-82
2021/08/14 02:35:54;;;;;;;4.78;3.67;;;19.10;65.30;;;;;;5092134;28;20391;-82
2021/08/14 02:38:20;;;;;;;7.25;4.15;;;19.10;65.30;;;;;;5093545;28;20493;-83
2021/08/14 02:40:46;;;;;;;5.65;3.80;;;19.20;65.50;;;;;;5075014;28;20145;-81
2021/08/14 02:46:08;;;;;;;8.85;4.05;;;19.10;65.40;;;;;;5295653;23;20276;-79
2021/08/14 02:48:34;;;;;;;6.88;4.40;;;19.10;65.40;;;;;;4913679;29;20079;-78
2021/08/14 02:51:00;;;;;;;5.07;3.83;;;19.10;65.50;;;;;;4916392;29;20036;-79
2021/08/14 02:53:27;;;;;;;6.25;4.20;;;19.10;65.50;;;;;;4916384;29;20079;-80
2021/08/14 02:55:54;;;;;;;7.65;4.20;;;19.10;65.60;;;;;;4916284;29;20055;-79
2021/08/14 02:58:20;;;;;;;10.82;4.60;;;19.00;65.40;;;;;;4916538;29;20054;-78
2021/08/14 03:00:46;;;;;;;7.65;4.55;;;19.00;65.40;;;;;;4915545;29;20445;-77
2021/08/14 03:03:13;;;;;;;7.05;4.40;;;19.10;65.70;;;;;;4916253;29;20032;-78
2021/08/14 03:05:40;;;;;;;8.30;4.85;;;19.00;65.50;;;;;;4916145;29;20123;-79
2021/08/14 03:08:10;;;;;;;6.82;4.93;;;19.00;65.50;;;;;;4898851;29;20040;-79
2021/08/14 03:10:40;;;;;;;7.15;4.20;;;19.00;65.60;;;;;;4898523;29;20024;-78
2021/08/14 03:13:07;;;;;;;6.75;4.30;;;19.00;65.60;;;;;;4916323;29;20047;-81
2021/08/14 03:15:33;;;;;;;8.20;3.72;;;19.00;65.60;;;;;;4919279;29;20388;-80
2021/08/14 03:17:59;;;;;;;7.70;4.72;;;19.00;65.60;;;;;;4934610;29;20059;-80
2021/08/14 03:20:25;;;;;;;5.82;3.67;;;19.00;65.60;;;;;;4934549;29;20081;-79
2021/08/14 03:22:51;;;;;;;6.30;3.90;;;19.00;65.70;;;;;;4934682;29;20650;-79
2021/08/14 03:25:17;;;;;;;8.45;4.03;;;19.00;65.70;;;;;;4934691;29;20099;-79
2021/08/14 03:27:42;;;;;;;6.03;3.70;;;19.00;65.70;;;;;;4934562;29;20379;-80
2021/08/14 03:30:09;;;;;;;6.28;3.90;;;18.90;65.60;;;;;;4917224;29;20454;-80
2021/08/14 03:32:35;;;;;;;9.65;4.22;;;19.00;65.80;;;;;;4917344;29;20043;-80
2021/08/14 03:35:01;;;;;;;9.68;4.72;;;18.90;65.70;;;;;;4917465;29;20034;-79
2021/08/14 03:37:27;;;;;;;6.70;4.18;;;18.90;65.70;;;;;;4934314;29;20032;-78
2021/08/14 03:39:53;;;;;;;5.30;3.75;;;18.90;65.70;;;;;;4933928;29;20038;-78
2021/08/14 03:42:19;;;;;;;5.43;3.70;;;18.90;65.70;;;;;;4934401;29;20050;-78
2021/08/14 03:44:45;;;;;;;8.52;5.07;;;18.90;66.30;;;;;;4934088;29;20090;-78
2021/08/14 03:47:10;;;;;;;5.43;3.72;;;18.90;65.80;;;;;;4900186;29;20487;-79
2021/08/14 03:49:36;;;;;;;6.50;4.00;;;18.90;65.80;;;;;;4915430;29;20550;-78
2021/08/14 03:52:02;;;;;;;6.57;4.15;;;18.90;65.80;;;;;;4915103;29;20040;-79
2021/08/14 03:54:28;;;;;;;7.82;4.50;;;18.90;66.40;;;;;;4915059;29;20087;-78
2021/08/14 03:56:56;;;;;;;6.55;3.70;;;18.90;65.90;;;;;;4915018;29;20071;-78
2021/08/14 03:59:22;;;;;;;8.43;3.65;;;18.80;65.80;;;;;;4898587;29;20123;-80
2021/08/14 04:01:48;;;;;;;6.75;3.78;;;18.80;65.80;;;;;;4915067;29;20028;-79
2021/08/14 04:04:14;;;;;;;7.53;4.40;;;18.80;65.80;;;;;;4914943;29;20080;-79
2021/08/14 04:06:40;;;;;;;8.18;4.65;;;18.80;65.90;;;;;;4897928;29;20036;-80
2021/08/14 04:09:05;;;;;;;7.10;4.18;;;18.80;65.90;;;;;;4915022;29;20111;-80
2021/08/14 04:11:31;;;;;;;6.60;4.40;;;18.80;65.90;;;;;;4915239;29;20090;-80
2021/08/14 04:13:57;;;;;;;8.02;4.03;;;18.80;66.00;;;;;;4914904;29;20063;-79
2021/08/14 04:16:23;;;;;;;6.18;4.80;;;18.80;66.00;;;;;;4897608;29;20032;-79
2021/08/14 04:18:49;;;;;;;6.97;3.88;;;18.80;66.00;;;;;;4915170;29;20068;-79
2021/08/14 04:21:15;;;;;;;9.15;5.22;;;18.80;66.00;;;;;;4914951;29;20036;-79
2021/08/14 04:23:41;;;;;;;7.70;4.63;;;18.80;66.00;;;;;;4898274;29;20029;-79
2021/08/14 04:26:07;;;;;;;9.35;4.18;;;18.80;66.10;;;;;;4915029;29;20032;-78
2021/08/14 04:28:33;;;;;;;6.03;3.97;;;18.70;65.90;;;;;;4914916;29;20059;-79
2021/08/14 04:30:59;;;;;;;6.45;4.43;;;18.70;66.00;;;;;;4915101;29;20052;-79
2021/08/14 04:33:25;;;;;;;8.80;4.60;;;18.70;66.00;;;;;;4915377;29;20263;-79
2021/08/14 04:35:50;;;;;;;7.30;4.20;;;18.70;66.00;;;;;;4914608;29;20024;-78
2021/08/14 04:38:16;;;;;;;8.07;4.15;;;18.70;66.00;;;;;;4897862;29;20040;-79
2021/08/14 04:40:42;;;;;;;8.63;4.45;;;18.70;66.10;;;;;;4909446;29;20387;-79
2021/08/14 04:43:08;;;;;;;6.38;4.53;;;18.70;66.10;;;;;;4925559;29;20153;-78
2021/08/14 04:45:34;;;;;;;9.70;4.47;;;18.60;66.00;;;;;;4926884;29;20086;-78
2021/08/14 04:48:00;;;;;;;5.65;3.95;;;18.60;66.00;;;;;;4923290;29;20199;-83
2021/08/14 04:50:26;;;;;;;9.75;5.07;;;18.60;66.00;;;;;;4903573;29;20039;-80
2021/08/14 04:52:52;;;;;;;7.70;5.10;;;18.60;66.00;;;;;;4894324;29;20039;-81
2021/08/14 04:55:18;;;;;;;5.97;4.22;;;18.60;66.00;;;;;;4893805;29;20048;-83
2021/08/14 04:57:44;;;;;;;6.35;3.67;;;18.50;65.90;;;;;;4902914;29;20059;-81
2021/08/14 05:00:10;;;;;;;8.13;4.05;;;18.50;65.90;;;;;;4933481;29;20040;-80
2021/08/14 05:02:36;;;;;;;7.38;3.90;;;18.50;66.00;;;;;;4928286;29;20033;-81
2021/08/14 05:05:02;;;;;;;7.22;4.57;;;18.50;66.00;;;;;;4895313;29;20071;-84
2021/08/14 05:07:28;;;;;;;7.13;4.72;;;18.50;66.00;;;;;;4900176;29;20072;-82
2021/08/14 05:09:54;;;;;;;7.05;4.43;;;18.50;66.10;;;;;;4933115;29;20510;-82
2021/08/14 05:12:20;;;;;;;7.32;4.13;;;18.50;66.10;;;;;;4915872;29;20043;-82
2021/08/14 05:14:46;;;;;;;6.85;4.25;;;18.50;66.10;;;;;;4932872;29;20047;-81
2021/08/14 05:17:12;;;;;;;5.75;4.50;;;18.50;66.10;;;;;;4914829;29;20036;-81
2021/08/14 05:19:41;;;;;;;6.40;3.90;;;18.50;66.10;;;;;;4932501;29;20046;-79
2021/08/14 05:22:06;;;;;;;7.45;4.55;;;18.50;66.20;;;;;;4932100;29;20161;-81
2021/08/14 05:24:32;;;;;;;7.53;3.63;;;18.50;66.20;;;;;;4933306;29;20050;-79
2021/08/14 05:26:58;;;;;;;6.85;4.10;;;18.50;66.20;;;;;;4929675;29;20057;-80
2021/08/14 05:29:24;;;;;;;6.10;3.88;;;18.50;66.20;;;;;;4931902;29;20111;-80
2021/08/14 05:31:50;;;;;;;6.68;4.65;;;18.50;66.20;;;;;;4932587;29;20050;-80
2021/08/14 05:34:16;;;;;;;6.78;4.35;;;18.50;66.20;;;;;;4931760;29;20380;-80
2021/08/14 05:36:42;;;;;;;5.88;4.65;;;18.50;66.20;;;;;;4932095;29;20122;-80
2021/08/14 05:39:08;;;;;;;7.38;5.05;;;18.50;66.20;;;;;;4932085;29;20043;-82
2021/08/14 05:41:39;;;;;;;10.05;5.03;;;18.60;66.40;;;;;;4932171;29;20064;-80
2021/08/14 05:44:06;;;;;;;8.02;4.50;;;18.60;66.40;;;;;;4932016;29;20046;-81
2021/08/14 05:46:32;;;;;;;8.57;4.65;;;18.60;66.40;;;;;;4919332;29;20075;-81
2021/08/14 05:48:58;;;;;;;5.57;4.15;;;18.60;66.40;;;;;;4927291;29;20471;-80
2021/08/14 05:51:24;;;;;;;7.15;4.70;;;18.60;66.40;;;;;;4914834;29;20530;-79
2021/08/14 05:53:50;;;;;;;6.75;3.97;;;18.60;66.40;;;;;;4931589;29;20043;-82
2021/08/14 05:56:16;;;;;;;8.60;5.43;;;18.60;66.40;;;;;;4931450;29;20039;-81
2021/08/14 05:58:42;;;;;;;5.50;4.30;;;18.70;66.60;;;;;;4914683;29;20039;-80
2021/08/14 06:01:08;;;;;;;5.28;3.67;;;18.60;66.40;;;;;;4914908;29;20087;-79
2021/08/14 06:03:35;;;;;;;7.28;5.53;;;18.70;66.50;;;;;;4914488;29;20115;-81
2021/08/14 06:06:02;;;;;;;8.30;5.32;;;18.70;66.50;;;;;;4931946;29;20054;-81
2021/08/14 06:08:28;;;;;;;6.78;5.20;;;18.70;66.60;;;;;;4914157;29;20028;-81
2021/08/14 06:10:54;;;;;;;6.65;4.80;;;18.70;66.50;;;;;;4930466;29;20040;-81
2021/08/14 06:13:20;;;;;;;11.68;4.53;;;18.70;66.50;;;;;;4932162;29;20043;-79
2021/08/14 06:15:46;;;;;;;7.78;4.50;;;18.70;66.50;;;;;;4892600;29;20043;-79
2021/08/14 06:18:12;;;;;;;8.45;4.82;;;18.70;66.50;;;;;;4919978;29;20035;-82
2021/08/14 06:20:38;;;;;;;11.40;5.80;;;18.70;66.50;;;;;;4931517;29;20062;-79
2021/08/14 06:23:04;;;;;;;6.90;4.47;;;18.70;66.80;;;;;;4917755;29;20428;-83
2021/08/14 06:25:30;;;;;;;8.48;5.70;;;18.70;67.00;;;;;;4911630;29;20558;-83
2021/08/14 06:27:56;;;;;;;9.55;5.22;;;18.80;67.40;;;;;;4929385;29;20032;-91
2021/08/14 06:30:22;;;;;;;11.18;5.95;;;18.80;67.80;;;;;;4898389;29;20131;-86
2021/08/14 06:32:48;;;;;;;14.82;7.28;;;18.80;68.30;;;;;;4930096;29;20082;-82
2021/08/14 06:35:14;;;;;;;12.70;6.30;;;18.80;68.70;;;;;;4930861;29;20035;-82
2021/08/14 06:37:44;;;;;;;9.40;6.70;;;18.90;69.20;;;;;;4930280;29;20035;-79
2021/08/14 06:40:15;;;;;;;11.45;7.35;;;19.00;69.90;;;;;;4931282;29;20087;-79
2021/08/14 06:42:41;;;;;;;10.68;7.10;;;19.00;69.90;;;;;;4930529;29;20028;-79
2021/08/14 06:45:08;;;;;;;10.13;6.82;;;19.20;70.40;;;;;;4929551;29;20515;-79
2021/08/14 06:47:34;;;;;;;12.27;7.60;;;19.20;70.50;;;;;;4906644;29;20122;-79
2021/08/14 06:50:00;;;;;;;13.80;7.05;;;19.30;70.70;;;;;;4915524;29;20168;-80
2021/08/14 06:52:26;;;;;;;11.00;7.53;;;19.40;70.90;;;;;;4911669;29;20420;-81
2021/08/14 06:54:52;;;;;;;15.48;8.20;;;19.50;71.10;;;;;;4911802;29;20040;-81
2021/08/14 06:57:18;;;;;;;15.85;7.40;;;19.50;71.00;;;;;;4896183;29;20032;-82
2021/08/14 06:59:44;;;;;;;13.65;7.35;;;19.60;71.20;;;;;;4929344;29;20036;-81
2021/08/14 07:02:10;;;;;;;12.18;7.13;;;19.60;71.30;;;;;;4929775;29;20114;-81
2021/08/14 07:04:38;;;;;;;14.73;8.23;;;19.60;71.30;;;;;;4930529;29;20084;-82
2021/08/14 07:07:04;;;;;;;12.43;7.20;;;19.80;71.70;;;;;;4913231;29;20334;-82
2021/08/14 07:09:31;;;;;;;16.15;7.75;;;19.80;71.60;;;;;;4911055;29;20036;-82
2021/08/14 07:11:57;;;;;;;13.63;6.93;;;19.90;71.80;;;;;;4910790;29;20376;-82
2021/08/14 07:14:23;;;;;;;15.02;7.15;;;19.90;71.90;;;;;;4911064;29;20491;-82
2021/08/14 07:16:49;;;;;;;11.77;6.32;;;19.90;71.90;;;;;;4911370;29;20056;-81
2021/08/14 07:19:15;;;;;;;11.00;6.97;;;20.00;72.10;;;;;;4927135;29;20126;-81
2021/08/14 07:21:41;;;;;;;11.25;7.00;;;20.00;72.60;;;;;;4929343;29;20035;-82
2021/08/14 07:24:07;;;;;;;10.93;7.25;;;20.10;72.30;;;;;;4929912;29;20048;-82
2021/08/14 07:26:33;;;;;;;13.70;7.47;;;20.10;72.30;;;;;;4913010;29;20024;-78
2021/08/14 07:29:00;;;;;;;11.48;7.13;;;20.20;72.40;;;;;;4912909;29;20521;-80
2021/08/14 07:31:26;;;;;;;14.13;7.35;;;20.20;72.30;;;;;;4930581;29;20087;-82
2021/08/14 07:33:52;;;;;;;9.98;6.05;;;20.20;72.20;;;;;;4929757;29;20126;-81
2021/08/14 07:36:18;;;;;;;12.13;6.95;;;20.30;72.30;;;;;;4929394;29;20038;-80
2021/08/14 07:38:44;;;;;;;10.32;6.60;;;20.30;72.20;;;;;;4929853;29;20542;-80
2021/08/14 07:41:10;;;;;;;14.63;6.95;;;20.30;72.00;;;;;;4929752;29;20126;-81
2021/08/14 07:43:36;;;;;;;9.57;6.57;;;20.30;71.90;;;;;;4921080;29;20082;-80
2021/08/14 07:46:02;;;;;;;10.63;6.80;;;20.40;72.00;;;;;;4921515;29;20142;-79
2021/08/14 07:48:28;;;;;;;10.10;6.35;;;20.50;72.00;;;;;;4920515;29;20150;-81
2021/08/14 07:50:54;;;;;;;9.88;5.68;;;20.60;72.00;;;;;;4930066;29;20492;-81
2021/08/14 07:53:20;;;;;;;8.55;6.35;;;20.60;71.90;;;;;;4917986;29;20031;-82
2021/08/14 07:55:46;;;;;;;8.55;5.57;;;20.70;71.90;;;;;;4912574;29;20040;-82
2021/08/14 07:58:13;;;;;;;9.93;5.60;;;20.80;71.90;;;;;;4912853;29;20501;-82
2021/08/14 08:00:40;;;;;;;9.52;6.03;;;20.90;71.90;;;;;;4930075;29;20039;-81
2021/08/14 08:03:07;;;;;;;9.65;5.47;;;21.00;71.80;;;;;;4930788;29;20067;-82
2021/08/14 08:05:33;;;;;;;6.97;5.45;;;21.10;71.70;;;;;;4912825;29;20034;-82
2021/08/14 08:08:02;;;;;;;9.57;6.90;;;21.20;71.70;;;;;;4929862;29;20044;-83
2021/08/14 08:10:28;;;;;;;7.00;5.70;;;21.30;71.60;;;;;;4915500;29;20028;-82
2021/08/14 08:12:54;;;;;;;8.20;5.78;;;21.40;71.60;;;;;;4925351;29;20071;-81
2021/08/14 08:15:21;;;;;;;8.02;5.95;;;21.40;71.40;;;;;;4911640;29;20036;-82
2021/08/14 08:17:48;;;;;;;11.00;6.72;;;21.50;71.40;;;;;;4916542;29;20066;-83
2021/08/14 08:20:18;;;;;;;11.13;6.82;;;21.60;71.40;;;;;;4931258;29;20356;-81
2021/08/14 08:22:44;;;;;;;7.20;5.53;;;21.60;71.20;;;;;;4938405;29;20032;-82
2021/08/14 08:25:12;;;;;;;9.23;5.70;;;21.70;71.10;;;;;;4954444;28;20020;-84
2021/08/14 08:27:41;;;;;;;7.97;5.53;;;21.80;71.20;;;;;;4931231;29;20023;-80
2021/08/14 08:30:08;;;;;;;9.20;6.65;;;21.90;71.20;;;;;;4935145;29;20029;-78
2021/08/14 08:32:35;;;;;;;13.10;6.50;;;21.90;70.90;;;;;;4937250;29;20031;-81
2021/08/14 08:35:01;;;;;;;8.32;5.90;;;21.90;70.80;;;;;;4930792;28;20138;-80
2021/08/14 08:37:28;;;;;;;9.68;6.45;;;22.00;70.80;;;;;;4935901;29;20379;-79
2021/08/14 08:39:54;;;;;;;9.50;6.57;;;22.10;70.80;;;;;;4935664;29;20126;-84
2021/08/14 08:42:20;;;;;;;9.70;5.50;;;22.10;70.70;;;;;;4933817;29;20067;-80
2021/08/14 08:44:46;;;;;;;8.57;5.82;;;22.20;70.70;;;;;;4934746;29;20047;-80
2021/08/14 08:47:14;;;;;;;9.70;5.80;;;22.30;70.70;;;;;;4916932;29;20044;-82
2021/08/14 08:49:51;;;;;;;9.35;6.25;;;22.30;70.60;;;;;;4933254;29;20043;-82
2021/08/14 08:52:18;;;;;;;9.02;5.38;;;22.40;71.10;;;;;;4889265;29;20032;-83
2021/08/14 08:54:45;;;;;;;9.27;5.93;;;22.60;70.70;;;;;;4895311;29;20053;-82
2021/08/14 08:57:11;;;;;;;9.13;6.28;;;22.70;70.60;;;;;;4895783;29;20551;-82
2021/08/14 08:59:37;;;;;;;8.95;5.70;;;22.80;70.50;;;;;;4932963;29;20061;-81
2021/08/14 09:02:03;;;;;;;9.48;6.25;;;23.00;70.70;;;;;;4933801;29;20511;-81
2021/08/14 09:04:31;;;;;;;8.30;6.13;;;23.10;70.50;;;;;;4915709;29;20040;-80
2021/08/14 09:06:59;;;;;;;8.35;6.15;;;23.20;70.40;;;;;;4898110;29;20062;-82
2021/08/14 09:09:34;;;;;;;10.43;6.28;;;23.40;70.50;;;;;;4914181;29;20484;-81
2021/08/14 09:12:05;;;;;;;8.13;6.10;;;23.50;70.40;;;;;;4882010;29;20648;-85
2021/08/14 09:14:46;;;;;;;9.30;6.40;;;23.70;70.30;;;;;;4914478;29;20048;-84
2021/08/14 09:17:12;;;;;;;8.82;5.95;;;23.90;70.20;;;;;;4881480;29;20032;-86
2021/08/14 09:19:38;;;;;;;8.98;6.53;;;24.10;70.20;;;;;;4923507;29;20040;-86
2021/08/14 09:22:20;;;;;;;9.30;6.47;;;24.10;69.80;;;;;;4897408;29;20035;-84
2021/08/14 09:24:46;;;;;;;6.88;5.55;;;24.30;69.80;;;;;;4910035;29;20599;-84
2021/08/14 09:27:15;;;;;;;7.88;6.10;;;24.30;69.60;;;;;;4916012;29;20056;-82
2021/08/14 09:29:42;;;;;;;7.65;5.15;;;24.40;69.60;;;;;;4916628;29;20055;-86
2021/08/14 09:32:15;;;;;;;8.75;6.07;;;24.40;69.50;;;;;;4896881;29;20036;-85
2021/08/14 09:34:49;;;;;;;10.20;7.00;;;24.40;69.30;;;;;;4915879;29;20155;-80
2021/08/14 09:37:17;;;;;;;12.43;6.82;;;24.50;69.30;;;;;;4914112;29;20059;-80
2021/08/14 09:39:52;;;;;;;10.27;5.80;;;24.60;69.20;;;;;;4932783;29;20418;-90
2021/08/14 09:42:19;;;;;;;7.75;6.25;;;24.70;69.00;;;;;;4932800;29;20034;-82
2021/08/14 09:44:47;;;;;;;9.10;5.03;;;24.80;69.50;;;;;;4932226;29;20122;-89
2021/08/14 09:47:32;;;;;;;8.07;6.60;;;24.90;69.00;;;;;;4915274;29;20058;-81
2021/08/14 09:49:58;;;;;;;9.65;6.15;;;25.00;68.90;;;;;;4895004;29;20068;-86
2021/08/14 09:52:26;;;;;;;6.70;5.13;;;25.10;68.70;;;;;;4887526;29;20108;-87
2021/08/14 09:54:53;;;;;;;7.22;6.18;;;25.30;68.60;;;;;;4912343;29;20040;-89
2021/08/14 09:57:20;;;;;;;10.32;6.05;;;25.50;68.30;;;;;;4912035;29;20029;-82
2021/08/14 09:59:48;;;;;;;11.32;6.20;;;25.60;68.10;;;;;;4877057;29;20068;-89
2021/08/14 10:02:22;;;;;;;9.75;5.70;;;25.80;67.80;;;;;;4896148;29;20104;-84
2021/08/14 10:04:49;;;;;;;8.70;5.60;;;26.00;67.40;;;;;;4881778;29;20040;-93
2021/08/14 10:07:16;;;;;;;8.60;5.13;;;26.20;67.20;;;;;;4864991;29;20068;-85
2021/08/14 10:09:43;;;;;;;7.85;5.40;;;26.30;66.90;;;;;;4897667;29;20046;-89
2021/08/14 10:12:11;;;;;;;9.10;6.10;;;26.30;66.60;;;;;;4897648;29;20562;-90
2021/08/14 10:14:45;;;;;;;7.63;5.65;;;26.30;66.60;;;;;;4914552;29;20108;-91
2021/08/14 10:17:12;;;;;;;9.13;6.05;;;26.30;66.50;;;;;;4914100;29;20479;-93
2021/08/14 10:19:39;;;;;;;10.35;5.63;;;26.40;66.50;;;;;;4936761;29;20028;-83
2021/08/14 10:22:07;;;;;;;7.38;4.82;;;26.40;66.30;;;;;;4918953;29;20075;-83
2021/08/14 10:24:55;;;;;;;8.18;5.28;;;26.50;66.10;;;;;;4925068;29;20032;-86
2021/08/14 10:27:25;;;;;;;6.03;5.25;;;26.70;65.90;;;;;;4927345;29;20185;-84
2021/08/14 10:29:58;;;;;;;9.82;5.80;;;26.80;65.80;;;;;;4926419;29;20170;-95
2021/08/14 10:32:30;;;;;;;12.95;5.43;;;26.90;65.50;;;;;;4938699;29;20083;-85
2021/08/14 10:35:17;;;;;;;8.75;5.85;;;27.20;65.30;;;;;;4920961;29;20372;-89
2021/08/14 10:37:48;;;;;;;7.68;4.75;;;27.30;65.00;;;;;;4934154;29;20040;-91
2021/08/14 10:40:15;;;;;;;6.43;5.25;;;27.50;64.60;;;;;;4933398;29;20045;-92
2021/08/14 10:42:48;;;;;;;9.95;4.82;;;27.70;64.50;;;;;;4922913;29;20028;-84
2021/08/14 10:45:16;;;;;;;6.38;4.82;;;27.80;64.20;;;;;;4913828;29;20052;-93
2021/08/14 10:47:46;;;;;;;9.10;5.30;;;27.90;64.10;;;;;;4918282;29;20103;-86
2021/08/14 10:50:37;;;;;;;9.38;5.32;;;28.10;63.90;;;;;;4934605;29;20510;-87
2021/08/14 10:53:20;;;;;;;6.90;4.88;;;28.20;63.60;;;;;;4933582;29;20577;-92
2021/08/14 10:55:56;;;;;;;8.15;4.97;;;28.20;63.30;;;;;;4915964;29;20372;-81
2021/08/14 10:58:37;;;;;;;7.03;5.00;;;28.30;63.20;;;;;;4931048;29;20041;-81
2021/08/14 11:01:03;;;;;;;7.22;4.18;;;28.40;63.20;;;;;;4918699;29;20040;-91
2021/08/14 11:03:34;;;;;;;7.65;4.57;;;28.50;63.10;;;;;;4899618;29;20130;-90
2021/08/14 11:06:39;;;;;;;10.65;5.95;;;28.50;62.70;;;;;;4894597;29;20047;-84
2021/08/14 11:09:20;;;;;;;8.55;5.07;;;28.50;62.30;;;;;;4845375;29;20139;-81
2021/08/14 11:12:29;;;;;;;7.55;4.85;;;28.40;61.40;;;;;;4856165;29;20057;-83
2021/08/14 11:15:29;;;;;;;6.30;4.03;;;28.30;60.90;;;;;;4901215;29;20067;-83
2021/08/14 11:17:58;;;;;;;8.85;4.43;;;28.10;60.50;;;;;;4894254;29;20028;-85
2021/08/14 11:20:24;;;;;;;8.15;4.25;;;27.80;60.20;;;;;;4903533;29;20041;-85
2021/08/14 11:22:51;;;;;;;7.40;4.00;;;27.70;60.20;;;;;;4915104;29;20038;-84
2021/08/14 11:25:37;;;;;;;8.13;4.50;;;27.60;60.10;;;;;;4945071;29;20039;-86
2021/08/14 11:28:06;;;;;;;8.85;4.32;;;27.50;59.90;;;;;;4920949;29;20129;-83
2021/08/14 11:30:43;;;;;;;7.63;4.50;;;27.50;60.10;;;;;;4945078;29;20043;-82
2021/08/14 11:33:11;;;;;;;12.32;4.93;;;27.40;59.70;;;;;;4904017;29;20036;-80
2021/08/14 11:35:39;;;;;;;7.00;4.68;;;27.30;59.70;;;;;;4924256;29;20032;-81
2021/08/14 11:38:07;;;;;;;8.40;5.35;;;27.20;59.90;;;;;;4911384;29;20047;-85
2021/08/14 11:40:38;;;;;;;8.13;4.63;;;27.20;60.10;;;;;;4913629;29;20028;-82
2021/08/14 11:43:10;;;;;;;11.20;4.60;;;27.10;60.10;;;;;;4914458;29;20036;-84
2021/08/14 11:45:38;;;;;;;10.45;5.00;;;27.00;60.10;;;;;;4929339;29;20056;-82
2021/08/14 11:48:16;;;;;;;7.85;4.43;;;26.90;60.20;;;;;;4926399;29;20046;-84
2021/08/14 11:50:48;;;;;;;9.82;5.07;;;26.80;60.40;;;;;;4932899;29;20043;-83
2021/08/14 11:53:26;;;;;;;7.82;4.43;;;26.70;60.50;;;;;;4905878;29;20032;-86
2021/08/14 11:56:10;;;;;;;8.10;4.47;;;26.70;60.60;;;;;;4910645;29;20043;-89
2021/08/14 11:58:37;;;;;;;6.28;4.30;;;26.70;60.50;;;;;;4912195;29;20040;-88
2021/08/14 12:01:05;;;;;;;8.63;5.07;;;26.70;60.50;;;;;;4912330;29;20036;-93
2021/08/14 12:03:32;;;;;;;7.22;4.07;;;26.80;60.40;;;;;;4903230;29;20491;-84
2021/08/14 12:06:10;;;;;;;6.85;3.90;;;26.90;60.10;;;;;;4911735;29;20486;-84
2021/08/14 12:08:39;;;;;;;5.25;3.83;;;26.80;59.60;;;;;;4901167;29;20075;-84
2021/08/14 12:11:08;;;;;;;7.00;3.67;;;26.90;59.70;;;;;;4915160;29;20028;-82
2021/08/14 12:13:34;;;;;;;7.05;3.42;;;26.90;59.50;;;;;;4924551;29;20557;-84
2021/08/14 12:16:19;;;;;;;6.07;3.08;;;26.90;59.40;;;;;;4908598;29;20184;-83
2021/08/14 12:18:54;;;;;;;3.97;2.92;;;26.90;59.20;;;;;;4892105;29;20471;-86
2021/08/14 12:21:26;;;;;;;7.82;3.53;;;26.90;59.10;;;;;;4926526;29;20042;-85
2021/08/14 12:24:07;;;;;;;6.03;3.17;;;27.10;59.20;;;;;;4889765;29;20081;-85
2021/08/14 12:26:33;;;;;;;5.10;2.80;;;27.10;58.70;;;;;;4903242;29;20032;-85
2021/08/14 12:29:09;;;;;;;6.30;3.08;;;27.30;58.80;;;;;;4913161;29;20083;-84
2021/08/14 12:31:57;;;;;;;5.55;2.67;;;27.40;58.40;;;;;;4898217;29;20389;-83
2021/08/14 12:34:30;;;;;;;5.10;2.67;;;27.50;58.10;;;;;;4914221;29;20819;-83
2021/08/14 12:37:09;;;;;;;4.55;2.70;;;27.50;57.90;;;;;;4897503;29;20043;-82
2021/08/14 12:39:51;;;;;;;7.90;3.00;;;27.60;57.80;;;;;;4897555;29;20519;-83
2021/08/14 12:42:32;;;;;;;4.43;2.30;;;27.70;57.90;;;;;;4913727;29;20036;-82
2021/08/14 12:45:10;;;;;;;4.60;2.58;;;27.80;57.80;;;;;;4880745;29;20154;-85
2021/08/14 12:47:36;;;;;;;3.50;2.28;;;27.80;57.40;;;;;;4898981;29;20041;-84
2021/08/14 12:50:13;;;;;;;3.20;1.63;;;27.80;57.30;;;;;;4912022;29;20067;-83
2021/08/14 12:52:40;;;;;;;2.00;1.67;;;27.70;57.00;;;;;;4927041;29;20063;-83
2021/08/14 12:55:07;;;;;;;5.30;2.30;;;27.70;57.10;;;;;;4903492;29;20044;-89